Time;durP1;ratioP1;P1;durP2;ratioP2;P2;SDS_P1;SDS_P2;PMS_P1;PMS_P2;Temp;Humidity;BMP_temperature;BMP_pressure;BME280_temperature;BME280_humidity;BME280_pressure;Samples;Min_cycle;Max_cycle;Signal;HPM_P1;HPM_P2
2021/01/22 00:01:30;;;;;;;4.63;3.80;;;7.20;58.20;;;;;;5015409;28;20480;-79
2021/01/22 00:03:57;;;;;;;4.67;4.27;;;7.20;58.40;;;;;;5017762;28;20468;-79
2021/01/22 00:06:24;;;;;;;4.90;4.40;;;7.20;58.30;;;;;;5018308;28;20481;-81
2021/01/22 00:08:51;;;;;;;4.20;3.80;;;7.20;58.40;;;;;;5032952;28;20463;-80
2021/01/22 00:11:17;;;;;;;4.10;3.70;;;7.20;58.10;;;;;;5037103;28;20440;-79
2021/01/22 00:13:44;;;;;;;5.93;3.87;;;7.20;58.30;;;;;;5044734;28;20524;-79
2021/01/22 00:16:11;;;;;;;3.70;3.40;;;7.20;58.30;;;;;;5023771;28;20501;-79
2021/01/22 00:18:37;;;;;;;5.40;3.50;;;7.20;59.30;;;;;;5017541;28;20575;-77
2021/01/22 00:21:04;;;;;;;4.40;4.00;;;7.20;58.90;;;;;;5008957;28;20459;-77
2021/01/22 00:23:30;;;;;;;4.93;4.43;;;7.20;59.30;;;;;;5020176;28;20537;-79
2021/01/22 00:25:58;;;;;;;5.60;4.37;;;7.20;59.40;;;;;;5018693;28;20946;-78
2021/01/22 00:28:25;;;;;;;4.50;3.80;;;7.20;59.50;;;;;;5022384;28;20458;-77
2021/01/22 00:30:52;;;;;;;5.77;3.93;;;7.10;58.90;;;;;;5016132;28;20570;-78
2021/01/22 00:33:19;;;;;;;4.30;3.87;;;7.00;58.90;;;;;;5025828;28;20463;-75
2021/01/22 00:35:45;;;;;;;5.00;3.73;;;6.90;59.30;;;;;;5021527;28;20461;-76
2021/01/22 00:38:11;;;;;;;9.90;4.10;;;7.00;59.60;;;;;;5017887;28;20491;-79
2021/01/22 00:40:38;;;;;;;4.70;3.80;;;7.00;59.80;;;;;;5027870;28;20457;-79
2021/01/22 00:43:07;;;;;;;3.77;3.10;;;6.90;59.40;;;;;;5025315;28;20473;-78
2021/01/22 00:45:34;;;;;;;4.90;4.10;;;7.00;60.00;;;;;;5035986;28;20466;-79
2021/01/22 00:48:01;;;;;;;3.67;3.37;;;6.90;59.70;;;;;;5017732;28;20444;-76
2021/01/22 00:50:28;;;;;;;3.90;3.57;;;7.00;59.50;;;;;;5013722;28;20489;-76
2021/01/22 00:52:54;;;;;;;4.53;3.30;;;7.00;59.50;;;;;;5010342;28;20535;-77
2021/01/22 00:55:20;;;;;;;5.10;4.00;;;7.10;59.50;;;;;;5009402;28;21115;-77
2021/01/22 00:57:47;;;;;;;3.77;3.47;;;7.10;59.40;;;;;;5009093;28;20459;-76
2021/01/22 01:00:14;;;;;;;4.70;3.70;;;7.10;58.90;;;;;;5011562;28;20448;-76
2021/01/22 01:02:41;;;;;;;4.30;3.57;;;7.10;59.00;;;;;;5007746;28;20961;-76
2021/01/22 01:05:09;;;;;;;3.97;3.60;;;7.10;58.50;;;;;;5008345;28;20459;-79
2021/01/22 01:07:36;;;;;;;3.87;3.37;;;7.10;58.60;;;;;;5008886;28;20467;-79
2021/01/22 01:10:07;;;;;;;3.37;3.07;;;7.00;58.40;;;;;;5017820;28;20444;-75
2021/01/22 01:12:34;;;;;;;3.57;3.27;;;7.00;58.70;;;;;;5010307;28;20803;-80
2021/01/22 01:15:01;;;;;;;3.83;3.43;;;7.10;59.50;;;;;;5009839;28;20487;-77
2021/01/22 01:17:27;;;;;;;3.60;3.30;;;7.10;59.60;;;;;;5011452;28;20459;-77
2021/01/22 01:19:53;;;;;;;3.20;2.90;;;7.20;59.90;;;;;;5018807;28;20456;-77
2021/01/22 01:22:21;;;;;;;3.00;2.77;;;7.20;60.10;;;;;;5016110;28;20530;-76
2021/01/22 01:24:47;;;;;;;4.80;2.80;;;7.20;60.30;;;;;;5010154;28;20499;-77
2021/01/22 01:27:14;;;;;;;3.20;2.53;;;7.20;60.30;;;;;;5012665;28;20546;-77
2021/01/22 01:29:40;;;;;;;2.40;2.20;;;7.20;60.60;;;;;;5012359;28;20451;-77
2021/01/22 01:32:09;;;;;;;2.60;2.20;;;7.30;60.60;;;;;;5010957;28;20809;-78
2021/01/22 01:34:36;;;;;;;2.60;2.40;;;7.30;61.10;;;;;;5007955;28;20478;-80
2021/01/22 01:37:02;;;;;;;2.17;1.97;;;7.30;61.00;;;;;;5011543;28;20449;-78
2021/01/22 01:39:29;;;;;;;2.50;2.30;;;7.30;61.00;;;;;;5011874;28;20521;-78
2021/01/22 01:41:56;;;;;;;2.40;2.20;;;7.30;61.00;;;;;;5016932;28;20443;-77
2021/01/22 01:44:22;;;;;;;2.70;2.23;;;7.30;61.00;;;;;;5012112;28;20476;-78
2021/01/22 01:46:51;;;;;;;2.80;2.30;;;7.20;61.10;;;;;;5010571;28;20805;-77
2021/01/22 01:49:18;;;;;;;3.40;2.10;;;7.20;61.10;;;;;;5014263;28;20827;-77
2021/01/22 01:51:45;;;;;;;2.80;2.50;;;7.10;61.30;;;;;;5013787;28;20453;-76
2021/01/22 01:54:12;;;;;;;2.57;2.07;;;7.00;61.40;;;;;;5009134;28;20473;-80
2021/01/22 01:56:40;;;;;;;3.27;2.47;;;7.00;61.30;;;;;;5011823;28;20455;-76
2021/01/22 01:59:06;;;;;;;2.53;2.33;;;7.00;61.70;;;;;;5019323;28;20930;-78
2021/01/22 02:01:36;;;;;;;5.83;2.60;;;6.90;61.70;;;;;;5012976;28;20542;-76
2021/01/22 02:04:03;;;;;;;3.00;2.70;;;6.90;62.10;;;;;;5013935;28;20459;-76
2021/01/22 02:06:30;;;;;;;3.00;2.40;;;6.90;62.00;;;;;;5013335;28;20459;-76
2021/01/22 02:08:57;;;;;;;3.20;2.83;;;7.00;62.10;;;;;;5005820;28;20963;-76
2021/01/22 02:11:26;;;;;;;2.97;2.67;;;7.00;62.20;;;;;;5015329;28;20814;-75
2021/01/22 02:13:55;;;;;;;2.77;2.33;;;6.90;62.00;;;;;;5023264;28;20527;-77
2021/01/22 02:16:23;;;;;;;3.07;2.77;;;6.90;61.90;;;;;;5025125;28;20456;-77
2021/01/22 02:18:53;;;;;;;2.60;2.40;;;6.80;62.00;;;;;;5022222;28;20453;-75
2021/01/22 02:21:25;;;;;;;1.93;1.77;;;6.80;62.10;;;;;;5013125;28;20450;-75
2021/01/22 02:23:53;;;;;;;2.63;2.43;;;6.80;62.70;;;;;;5023572;28;20555;-76
2021/01/22 02:26:49;;;;;;;3.07;2.10;;;6.70;62.40;;;;;;5013796;28;20851;-76
2021/01/22 02:29:16;;;;;;;1.63;1.43;;;6.70;62.20;;;;;;5011548;28;21050;-77
2021/01/22 02:31:45;;;;;;;1.90;1.80;;;6.80;62.40;;;;;;5013825;28;20478;-77
2021/01/22 02:34:15;;;;;;;2.30;2.10;;;6.80;62.40;;;;;;5009036;28;21111;-77
2021/01/22 02:36:45;;;;;;;2.13;1.93;;;6.70;62.20;;;;;;5012109;28;20475;-76
2021/01/22 02:39:16;;;;;;;1.50;1.40;;;6.60;62.10;;;;;;5014260;28;20474;-76
2021/01/22 02:41:46;;;;;;;2.67;1.90;;;6.70;62.50;;;;;;5013742;28;20460;-76
2021/01/22 02:44:13;;;;;;;2.13;1.80;;;6.70;62.20;;;;;;5013773;28;20607;-76
2021/01/22 02:46:40;;;;;;;1.77;1.50;;;6.80;62.00;;;;;;5012146;28;20463;-78
2021/01/22 02:49:06;;;;;;;1.70;1.60;;;6.80;62.00;;;;;;5013650;28;20454;-77
2021/01/22 02:51:34;;;;;;;1.83;1.63;;;6.70;62.00;;;;;;5008425;28;20480;-76
2021/01/22 02:54:00;;;;;;;2.03;1.87;;;6.70;61.80;;;;;;5015928;28;20468;-76
2021/01/22 02:56:38;;;;;;;2.70;1.50;;;6.80;62.00;;;;;;5015372;28;20990;-79
2021/01/22 02:59:14;;;;;;;2.30;1.80;;;6.90;62.10;;;;;;5014494;28;21323;-76
2021/01/22 03:01:53;;;;;;;2.03;1.63;;;6.90;62.10;;;;;;5012679;28;20482;-76
2021/01/22 03:04:29;;;;;;;1.53;1.20;;;6.90;62.00;;;;;;5017062;28;20973;-77
2021/01/22 03:06:57;;;;;;;1.70;1.60;;;6.90;61.80;;;;;;5015535;28;20915;-76
2021/01/22 03:09:27;;;;;;;1.30;1.20;;;7.00;61.90;;;;;;5014530;28;20473;-76
2021/01/22 03:11:56;;;;;;;1.50;1.23;;;7.20;61.50;;;;;;5013917;28;20493;-78
2021/01/22 03:14:24;;;;;;;2.03;1.50;;;7.10;61.30;;;;;;5012877;28;20468;-77
2021/01/22 03:16:51;;;;;;;1.77;0.97;;;7.10;61.40;;;;;;5015990;28;20455;-76
2021/01/22 03:19:18;;;;;;;2.50;1.27;;;7.20;61.60;;;;;;5014632;28;20880;-76
2021/01/22 03:21:44;;;;;;;1.73;1.20;;;7.30;61.70;;;;;;5019289;28;20439;-77
2021/01/22 03:24:11;;;;;;;1.40;1.30;;;7.40;61.60;;;;;;5015875;28;20451;-76
2021/01/22 03:26:37;;;;;;;1.40;1.30;;;7.50;61.10;;;;;;5014406;28;20511;-77
2021/01/22 03:29:04;;;;;;;1.60;1.50;;;7.50;61.00;;;;;;5011551;28;20466;-77
2021/01/22 03:31:31;;;;;;;2.73;1.77;;;7.40;60.90;;;;;;5016833;28;20487;-78
2021/01/22 03:33:58;;;;;;;2.10;1.47;;;7.40;61.10;;;;;;5011342;28;20471;-77
2021/01/22 03:36:27;;;;;;;2.07;1.47;;;7.40;60.90;;;;;;5026113;28;20452;-80
2021/01/22 03:38:53;;;;;;;1.70;1.60;;;7.40;61.10;;;;;;5036128;28;20441;-80
2021/01/22 03:41:20;;;;;;;2.30;1.50;;;7.60;61.20;;;;;;5033086;28;20459;-77
2021/01/22 03:43:47;;;;;;;1.93;1.37;;;7.50;60.90;;;;;;5016369;28;20453;-77
2021/01/22 03:46:14;;;;;;;1.30;1.20;;;7.60;61.10;;;;;;5015402;28;20446;-77
2021/01/22 03:48:45;;;;;;;1.30;1.13;;;7.60;61.40;;;;;;5015367;28;20572;-77
2021/01/22 03:51:12;;;;;;;3.40;1.60;;;7.50;61.60;;;;;;5012142;28;20460;-77
2021/01/22 03:53:39;;;;;;;1.70;1.60;;;7.60;61.70;;;;;;5015056;28;20555;-78
2021/01/22 03:56:06;;;;;;;1.33;1.23;;;7.60;61.40;;;;;;5026198;28;20458;-83
2021/01/22 03:58:32;;;;;;;1.27;1.07;;;7.60;61.80;;;;;;5028753;28;20803;-78
2021/01/22 04:00:58;;;;;;;1.30;1.20;;;7.60;61.60;;;;;;5007686;28;20486;-79
2021/01/22 04:03:28;;;;;;;1.50;1.33;;;7.70;61.70;;;;;;5009869;28;20455;-77
2021/01/22 04:05:56;;;;;;;1.23;1.13;;;7.70;61.70;;;;;;5009530;28;20932;-78
2021/01/22 04:08:22;;;;;;;1.60;1.30;;;7.60;62.00;;;;;;5007284;28;20444;-78
2021/01/22 04:10:49;;;;;;;1.43;1.23;;;7.50;62.00;;;;;;5008698;28;20491;-78
2021/01/22 04:13:15;;;;;;;2.27;1.20;;;7.50;61.90;;;;;;5009913;28;20490;-78
2021/01/22 04:15:42;;;;;;;3.03;1.10;;;7.40;62.00;;;;;;5002196;28;20476;-77
2021/01/22 04:18:08;;;;;;;1.30;1.20;;;7.50;62.30;;;;;;5019490;28;20447;-79
2021/01/22 04:20:35;;;;;;;2.07;1.30;;;7.50;62.00;;;;;;5014444;28;21069;-79
2021/01/22 04:23:02;;;;;;;1.20;1.10;;;7.40;62.30;;;;;;5009802;28;20579;-78
2021/01/22 04:25:29;;;;;;;3.10;1.30;;;7.30;62.50;;;;;;5010117;28;20545;-79
2021/01/22 04:27:55;;;;;;;1.00;0.90;;;7.20;62.80;;;;;;5013644;28;20443;-78
2021/01/22 04:30:22;;;;;;;2.70;1.60;;;7.20;62.70;;;;;;5013454;28;20452;-78
2021/01/22 04:32:48;;;;;;;1.90;1.37;;;7.00;62.80;;;;;;5008844;28;20494;-78
2021/01/22 04:35:17;;;;;;;4.13;1.30;;;7.00;63.20;;;;;;5016350;28;20567;-79
2021/01/22 04:37:43;;;;;;;2.90;1.30;;;7.10;63.20;;;;;;5012595;28;20447;-79
2021/01/22 04:40:12;;;;;;;1.97;1.10;;;7.00;63.20;;;;;;5008833;28;20772;-78
2021/01/22 04:42:40;;;;;;;5.23;1.43;;;7.20;63.00;;;;;;5009099;28;20554;-78
2021/01/22 04:45:08;;;;;;;1.80;1.30;;;7.10;63.10;;;;;;5012522;28;20451;-78
2021/01/22 04:47:35;;;;;;;1.73;0.90;;;7.10;63.20;;;;;;5009002;28;20452;-78
2021/01/22 04:50:03;;;;;;;1.67;1.40;;;7.10;63.20;;;;;;5010420;28;20793;-78
2021/01/22 04:52:32;;;;;;;1.73;1.30;;;7.10;63.40;;;;;;5014392;28;20452;-78
2021/01/22 04:55:00;;;;;;;2.30;1.17;;;7.10;63.80;;;;;;5012993;28;20497;-77
2021/01/22 04:57:30;;;;;;;5.60;1.50;;;7.00;63.50;;;;;;5012341;28;20456;-77
2021/01/22 04:59:57;;;;;;;2.17;1.93;;;7.00;63.50;;;;;;5015353;28;20812;-78
2021/01/22 05:02:23;;;;;;;2.40;1.20;;;6.90;63.50;;;;;;5009282;28;20463;-78
2021/01/22 05:04:53;;;;;;;1.50;1.40;;;6.80;63.60;;;;;;5014139;28;20498;-78
2021/01/22 05:07:22;;;;;;;1.93;1.47;;;6.70;64.00;;;;;;5010035;28;20834;-79
2021/01/22 05:09:49;;;;;;;1.27;1.10;;;6.80;63.90;;;;;;5026969;28;21150;-78
2021/01/22 05:12:15;;;;;;;1.50;1.40;;;6.70;64.00;;;;;;5025989;28;20538;-77
2021/01/22 05:14:43;;;;;;;1.30;1.10;;;6.70;64.00;;;;;;5007327;28;20474;-78
2021/01/22 05:17:10;;;;;;;4.10;1.33;;;6.70;64.00;;;;;;5015143;28;20524;-79
2021/01/22 05:19:40;;;;;;;1.93;1.13;;;6.60;64.00;;;;;;5011524;28;20494;-78
2021/01/22 05:22:09;;;;;;;1.83;1.30;;;6.60;64.00;;;;;;5019715;28;20460;-79
2021/01/22 05:24:35;;;;;;;1.90;1.23;;;6.60;64.30;;;;;;5014487;28;20444;-79
2021/01/22 05:27:04;;;;;;;1.60;1.50;;;6.60;64.20;;;;;;5020544;28;20458;-77
2021/01/22 05:29:33;;;;;;;2.57;1.27;;;6.50;64.10;;;;;;5010322;28;20470;-77
2021/01/22 05:32:04;;;;;;;1.40;1.27;;;6.50;64.40;;;;;;5011715;28;20459;-78
2021/01/22 05:34:47;;;;;;;2.93;1.93;;;6.60;64.70;;;;;;5010496;28;20570;-77
2021/01/22 05:37:16;;;;;;;2.37;1.80;;;6.60;64.60;;;;;;5012175;28;20950;-77
2021/01/22 05:39:43;;;;;;;1.87;1.40;;;6.60;64.60;;;;;;5010537;28;20552;-77
2021/01/22 05:42:10;;;;;;;2.47;1.63;;;6.50;64.70;;;;;;5010971;28;20479;-78
2021/01/22 05:44:37;;;;;;;1.77;1.10;;;6.40;64.60;;;;;;5013108;28;20447;-79
2021/01/22 05:47:06;;;;;;;1.63;1.53;;;6.50;64.80;;;;;;5013143;28;20550;-78
2021/01/22 05:49:33;;;;;;;1.90;1.50;;;6.50;64.50;;;;;;5013465;28;20581;-78
2021/01/22 05:52:00;;;;;;;3.07;1.80;;;6.60;64.70;;;;;;5033945;28;20443;-79
2021/01/22 05:54:37;;;;;;;2.23;1.30;;;6.60;64.60;;;;;;5021155;28;20462;-79
2021/01/22 05:57:04;;;;;;;2.70;1.60;;;6.70;64.60;;;;;;5042570;28;20432;-80
2021/01/22 05:59:31;;;;;;;3.63;2.30;;;6.70;64.30;;;;;;5034737;28;20463;-78
2021/01/22 06:01:57;;;;;;;6.40;2.03;;;6.80;64.20;;;;;;5025029;28;20455;-77
2021/01/22 06:04:25;;;;;;;3.07;1.53;;;6.90;64.00;;;;;;5016941;28;20494;-78
2021/01/22 06:06:53;;;;;;;2.37;1.30;;;6.90;64.00;;;;;;5019057;28;20530;-78
2021/01/22 06:09:33;;;;;;;4.03;1.80;;;7.00;63.90;;;;;;5018965;28;21074;-78
2021/01/22 06:12:02;;;;;;;3.97;1.67;;;7.00;63.80;;;;;;5008909;28;20439;-78
2021/01/22 06:14:35;;;;;;;1.97;1.40;;;7.00;63.60;;;;;;5010688;28;20510;-78
2021/01/22 06:17:07;;;;;;;1.57;1.47;;;7.00;63.40;;;;;;5010579;28;20455;-78
2021/01/22 06:19:38;;;;;;;3.30;1.80;;;7.00;63.50;;;;;;5016632;28;20473;-78
2021/01/22 06:22:11;;;;;;;2.40;1.50;;;7.00;63.30;;;;;;5017256;28;20779;-78
2021/01/22 06:24:37;;;;;;;1.87;1.40;;;7.00;63.50;;;;;;5018655;28;20451;-79
2021/01/22 06:27:16;;;;;;;2.47;1.63;;;7.10;63.40;;;;;;5012356;28;20475;-78
2021/01/22 06:29:44;;;;;;;4.33;1.93;;;7.10;63.30;;;;;;5012567;28;20444;-79
2021/01/22 06:32:13;;;;;;;2.30;1.40;;;7.10;63.20;;;;;;5018404;28;20831;-79
2021/01/22 06:34:44;;;;;;;4.93;1.80;;;7.10;63.20;;;;;;5015060;28;20472;-79
2021/01/22 06:37:11;;;;;;;4.13;1.67;;;7.10;63.30;;;;;;5017078;28;20986;-79
2021/01/22 06:39:38;;;;;;;1.47;1.37;;;7.10;63.10;;;;;;5020179;28;20461;-79
2021/01/22 06:42:06;;;;;;;3.50;1.80;;;7.00;63.20;;;;;;5013835;28;20508;-79
2021/01/22 06:44:33;;;;;;;2.93;1.40;;;7.00;63.20;;;;;;5014088;28;20490;-79
2021/01/22 06:46:59;;;;;;;3.50;1.30;;;7.10;63.10;;;;;;5013652;28;20514;-79
2021/01/22 06:49:32;;;;;;;2.23;1.30;;;7.10;63.20;;;;;;5013627;28;20494;-79
2021/01/22 06:52:14;;;;;;;2.23;0.93;;;7.10;63.10;;;;;;5014179;28;20563;-76
2021/01/22 06:55:11;;;;;;;2.13;1.13;;;7.10;63.00;;;;;;5018538;28;20481;-78
2021/01/22 06:57:39;;;;;;;3.00;1.57;;;7.00;63.10;;;;;;4976163;28;20465;-78
2021/01/22 07:00:35;;;;;;;3.00;1.30;;;7.10;63.20;;;;;;5001456;28;20467;-80
2021/01/22 07:03:02;;;;;;;2.13;1.40;;;7.20;63.40;;;;;;5009339;28;20459;-79
2021/01/22 07:05:38;;;;;;;1.30;0.87;;;7.20;63.00;;;;;;5027228;28;20477;-79
2021/01/22 07:08:06;;;;;;;2.60;1.50;;;7.30;62.90;;;;;;5034461;28;20527;-80
2021/01/22 07:10:58;;;;;;;1.53;1.07;;;7.30;62.70;;;;;;5035598;28;20460;-79
2021/01/22 07:13:42;;;;;;;2.77;0.80;;;7.30;62.80;;;;;;5010659;28;20486;-79
2021/01/22 07:16:11;;;;;;;3.57;0.90;;;7.40;62.80;;;;;;5015997;28;21023;-77
2021/01/22 07:18:46;;;;;;;2.80;0.90;;;7.30;62.50;;;;;;5015851;28;20974;-79
2021/01/22 07:21:20;;;;;;;1.70;1.17;;;7.40;62.70;;;;;;5015631;28;20467;-79
2021/01/22 07:23:48;;;;;;;1.37;0.90;;;7.50;62.50;;;;;;5015321;28;20452;-79
2021/01/22 07:26:16;;;;;;;2.00;1.03;;;7.60;62.30;;;;;;5014886;28;20954;-78
2021/01/22 07:28:53;;;;;;;1.83;1.10;;;7.70;62.10;;;;;;5020149;28;20460;-80
2021/01/22 07:31:53;;;;;;;0.83;0.80;;;7.80;61.80;;;;;;5024757;28;20455;-78
2021/01/22 07:34:48;;;;;;;2.20;1.13;;;7.90;61.80;;;;;;5014761;28;20464;-79
2021/01/22 07:37:20;;;;;;;1.53;1.10;;;8.10;61.70;;;;;;5022381;28;20494;-79
2021/01/22 07:39:51;;;;;;;1.60;0.80;;;8.20;61.70;;;;;;5016184;28;20517;-78
2021/01/22 07:42:20;;;;;;;1.27;1.00;;;8.30;61.50;;;;;;5016681;28;20564;-78
2021/01/22 07:44:48;;;;;;;1.60;1.00;;;8.40;61.40;;;;;;5021821;28;20495;-76
2021/01/22 07:47:26;;;;;;;2.03;1.23;;;8.50;61.10;;;;;;5013812;28;20465;-78
2021/01/22 07:49:54;;;;;;;1.60;1.17;;;8.60;61.10;;;;;;5008204;28;20448;-77
2021/01/22 07:52:21;;;;;;;1.90;1.23;;;8.60;61.00;;;;;;5019963;28;20488;-78
2021/01/22 07:54:49;;;;;;;1.70;1.00;;;8.70;60.80;;;;;;5013011;28;20480;-79
2021/01/22 07:57:18;;;;;;;1.20;1.00;;;8.80;60.90;;;;;;5014460;28;20475;-78
2021/01/22 07:59:46;;;;;;;1.90;0.80;;;8.80;60.70;;;;;;5010283;28;20503;-78
2021/01/22 08:02:15;;;;;;;2.13;1.00;;;8.80;60.50;;;;;;5029755;28;20470;-79
2021/01/22 08:04:42;;;;;;;1.93;0.60;;;8.90;60.60;;;;;;5031406;28;20473;-79
2021/01/22 08:07:09;;;;;;;6.30;1.10;;;8.90;60.30;;;;;;5019905;28;20455;-78
2021/01/22 08:09:55;;;;;;;1.30;0.87;;;8.90;60.50;;;;;;5007283;28;20459;-77
2021/01/22 08:12:22;;;;;;;1.50;0.80;;;8.90;60.10;;;;;;5011070;28;20478;-73
2021/01/22 08:14:50;;;;;;;0.73;0.73;;;8.90;60.20;;;;;;5011042;28;20563;-74
2021/01/22 08:17:18;;;;;;;1.10;0.90;;;9.10;60.70;;;;;;5018195;28;20526;-74
2021/01/22 08:19:46;;;;;;;2.77;1.00;;;9.20;60.70;;;;;;5004090;28;20465;-67
2021/01/22 08:22:15;;;;;;;2.27;1.00;;;9.50;62.70;;;;;;5004094;28;20479;-74
2021/01/22 08:24:49;;;;;;;2.10;1.10;;;9.30;59.80;;;;;;5006182;28;20531;-73
2021/01/22 08:27:21;;;;;;;3.90;1.27;;;9.40;59.80;;;;;;5007311;28;20861;-72
2021/01/22 08:29:50;;;;;;;3.00;1.00;;;9.50;59.70;;;;;;5012701;28;20983;-72
2021/01/22 08:32:18;;;;;;;3.77;1.03;;;9.40;59.40;;;;;;5008198;28;20562;-72
2021/01/22 08:34:46;;;;;;;1.00;0.90;;;9.60;59.90;;;;;;5003130;28;21097;-76
2021/01/22 08:37:17;;;;;;;2.37;0.90;;;9.60;59.30;;;;;;5002913;28;20520;-72
2021/01/22 08:39:51;;;;;;;3.20;0.93;;;9.70;59.30;;;;;;5010354;28;20750;-73
2021/01/22 08:42:19;;;;;;;1.77;0.90;;;9.70;59.20;;;;;;5009766;28;20493;-72
2021/01/22 08:44:56;;;;;;;3.03;1.20;;;9.60;59.30;;;;;;5008433;28;20442;-72
2021/01/22 08:47:23;;;;;;;1.10;0.60;;;9.50;59.00;;;;;;5012040;28;20488;-75
2021/01/22 08:50:04;;;;;;;2.50;1.00;;;9.60;59.20;;;;;;5005740;28;20480;-73
2021/01/22 08:52:31;;;;;;;2.83;1.00;;;9.70;59.10;;;;;;5002222;28;21081;-74
2021/01/22 08:54:59;;;;;;;1.60;0.93;;;9.70;59.10;;;;;;5008693;28;20679;-74
2021/01/22 08:57:29;;;;;;;2.77;1.00;;;9.90;59.00;;;;;;5004405;28;20446;-74
2021/01/22 08:59:56;;;;;;;1.53;0.90;;;10.00;58.00;;;;;;5006727;28;20460;-73
2021/01/22 09:02:41;;;;;;;1.67;1.20;;;10.00;57.90;;;;;;5004512;28;20489;-79
2021/01/22 09:05:11;;;;;;;2.53;1.00;;;10.00;57.80;;;;;;5011168;28;20982;-78
2021/01/22 09:07:38;;;;;;;4.87;1.10;;;10.10;57.70;;;;;;5007122;28;20965;-78
2021/01/22 09:10:07;;;;;;;2.43;1.13;;;10.10;57.70;;;;;;5011803;28;20940;-78
2021/01/22 09:12:34;;;;;;;2.43;0.90;;;10.10;57.40;;;;;;5013051;28;20478;-76
2021/01/22 09:15:04;;;;;;;2.80;0.93;;;10.10;57.40;;;;;;5012621;28;20996;-76
2021/01/22 09:17:39;;;;;;;1.90;0.80;;;10.20;57.50;;;;;;5009791;28;20489;-76
2021/01/22 09:20:14;;;;;;;3.30;0.80;;;10.10;57.30;;;;;;5012908;28;21007;-73
2021/01/22 09:22:42;;;;;;;1.47;0.97;;;10.10;57.40;;;;;;5012927;28;20462;-75
2021/01/22 09:25:14;;;;;;;0.90;0.67;;;10.10;57.30;;;;;;5010447;28;20526;-74
2021/01/22 09:27:43;;;;;;;2.20;1.00;;;10.10;57.40;;;;;;5010380;28;20458;-75
2021/01/22 09:30:12;;;;;;;1.53;0.97;;;9.90;58.00;;;;;;5007785;28;20824;-75
2021/01/22 09:32:39;;;;;;;1.90;0.90;;;9.90;58.10;;;;;;5008099;28;20457;-73
2021/01/22 09:35:07;;;;;;;4.00;0.90;;;10.00;57.20;;;;;;5011077;28;20473;-73
2021/01/22 09:37:34;;;;;;;2.87;0.80;;;10.20;57.50;;;;;;5004440;28;20978;-73
2021/01/22 09:40:00;;;;;;;4.33;1.20;;;10.30;57.10;;;;;;5009222;28;20446;-75
2021/01/22 09:42:27;;;;;;;1.43;0.70;;;10.40;57.10;;;;;;5009569;28;20451;-75
2021/01/22 09:44:58;;;;;;;1.43;0.73;;;10.50;56.70;;;;;;5009575;28;21176;-75
2021/01/22 09:47:25;;;;;;;0.93;0.67;;;10.60;56.80;;;;;;5002723;28;20443;-75
2021/01/22 09:49:51;;;;;;;1.60;0.90;;;10.70;56.70;;;;;;5003078;28;20515;-78
2021/01/22 09:52:20;;;;;;;2.90;1.20;;;10.80;56.70;;;;;;5011436;28;20450;-76
2021/01/22 09:54:47;;;;;;;0.90;0.90;;;10.90;56.50;;;;;;5010676;28;20467;-76
2021/01/22 09:57:14;;;;;;;3.13;0.80;;;10.90;56.40;;;;;;5012771;28;20459;-75
2021/01/22 09:59:41;;;;;;;2.20;0.80;;;11.00;56.30;;;;;;5008451;28;20518;-75
2021/01/22 10:02:10;;;;;;;2.50;1.17;;;10.90;56.20;;;;;;5011739;28;20520;-77
2021/01/22 10:04:37;;;;;;;1.87;1.27;;;10.90;56.10;;;;;;5004147;28;20213;-73
2021/01/22 10:07:05;;;;;;;2.37;1.00;;;10.80;55.90;;;;;;5009394;28;20534;-78
2021/01/22 10:09:32;;;;;;;3.25;0.95;;;10.90;55.80;;;;;;5016095;28;20463;-75
2021/01/22 10:12:06;;;;;;;2.60;0.80;;;11.00;55.70;;;;;;5011909;28;20276;-75
2021/01/22 10:14:33;;;;;;;4.63;2.03;;;11.00;56.00;;;;;;5012344;28;20558;-73
2021/01/22 10:17:00;;;;;;;3.27;0.77;;;11.00;55.70;;;;;;5008146;28;20452;-73
2021/01/22 10:19:28;;;;;;;7.83;1.20;;;11.00;55.40;;;;;;5010045;28;20460;-75
2021/01/22 10:21:54;;;;;;;3.60;1.20;;;10.90;55.40;;;;;;5010684;28;20354;-77
2021/01/22 10:24:21;;;;;;;2.22;1.10;;;10.90;55.50;;;;;;5008275;28;20457;-75
2021/01/22 10:26:49;;;;;;;1.90;0.80;;;10.90;55.20;;;;;;5009030;28;20253;-74
2021/01/22 10:29:16;;;;;;;3.37;1.00;;;11.00;55.50;;;;;;5009111;28;20448;-74
2021/01/22 10:31:43;;;;;;;4.00;1.30;;;11.10;55.20;;;;;;5006103;28;20462;-74
2021/01/22 10:34:10;;;;;;;2.30;1.17;;;11.30;55.30;;;;;;5013035;28;20470;-75
2021/01/22 10:36:38;;;;;;;5.90;1.13;;;11.30;55.30;;;;;;5015550;28;21576;-74
2021/01/22 10:39:05;;;;;;;3.77;1.13;;;11.40;55.00;;;;;;5018679;28;20463;-75
2021/01/22 10:41:37;;;;;;;4.20;1.38;;;11.50;54.90;;;;;;5015903;28;20521;-74
2021/01/22 10:44:05;;;;;;;8.90;1.30;;;11.60;54.70;;;;;;5011382;28;20538;-75
2021/01/22 10:46:32;;;;;;;1.67;1.00;;;11.70;54.70;;;;;;5006739;28;20466;-76
2021/01/22 10:48:59;;;;;;;3.50;1.20;;;11.80;54.80;;;;;;5011765;28;20454;-78
2021/01/22 10:51:26;;;;;;;4.63;1.10;;;11.90;54.40;;;;;;5018428;28;20214;-84
2021/01/22 10:53:54;;;;;;;2.25;1.10;;;12.00;54.30;;;;;;5016431;28;20509;-74
2021/01/22 10:56:21;;;;;;;5.87;1.20;;;11.90;53.80;;;;;;5005699;28;20212;-67
2021/01/22 10:58:48;;;;;;;5.53;1.30;;;12.40;55.20;;;;;;5008280;28;20461;-78
2021/01/22 11:01:14;;;;;;;10.03;1.50;;;12.50;53.80;;;;;;5005231;28;20462;-77
2021/01/22 11:03:41;;;;;;;6.88;1.40;;;12.50;53.80;;;;;;5007596;28;20623;-77
2021/01/22 11:06:08;;;;;;;3.43;1.10;;;12.30;53.40;;;;;;5011093;28;20211;-77
2021/01/22 11:08:35;;;;;;;2.80;1.10;;;12.30;53.60;;;;;;5007216;28;20537;-77
2021/01/22 11:11:02;;;;;;;5.20;1.30;;;12.20;53.60;;;;;;5003817;28;20455;-79
2021/01/22 11:13:29;;;;;;;4.90;1.20;;;12.20;53.30;;;;;;5009572;28;20230;-78
2021/01/22 11:15:55;;;;;;;5.70;1.50;;;12.20;53.40;;;;;;5019048;28;20455;-78
2021/01/22 11:18:22;;;;;;;7.10;1.50;;;12.30;53.10;;;;;;5009064;28;20963;-75
2021/01/22 11:20:49;;;;;;;2.93;0.97;;;12.40;53.20;;;;;;5011397;28;20457;-72
2021/01/22 11:23:16;;;;;;;9.03;1.10;;;12.50;53.70;;;;;;5018928;28;20460;-78
2021/01/22 11:25:43;;;;;;;9.40;1.20;;;12.90;54.50;;;;;;5018148;28;20462;-79
2021/01/22 11:28:10;;;;;;;5.27;1.27;;;12.90;53.90;;;;;;5016265;28;20443;-79
2021/01/22 11:30:38;;;;;;;8.03;1.90;;;13.10;54.70;;;;;;5016234;28;20457;-75
2021/01/22 11:33:05;;;;;;;4.57;1.35;;;13.40;54.40;;;;;;5013194;28;20454;-77
2021/01/22 11:35:34;;;;;;;7.30;1.58;;;13.50;53.40;;;;;;5018386;28;20486;-77
2021/01/22 11:38:01;;;;;;;7.07;1.67;;;13.40;52.70;;;;;;5003260;28;20302;-78
2021/01/22 11:40:28;;;;;;;5.73;1.50;;;13.10;53.10;;;;;;5010917;28;21136;-77
2021/01/22 11:42:55;;;;;;;15.13;1.40;;;13.00;52.50;;;;;;5004847;28;20470;-75
2021/01/22 11:45:22;;;;;;;6.50;1.50;;;13.10;52.70;;;;;;5003187;28;20454;-78
2021/01/22 11:47:49;;;;;;;5.60;1.40;;;13.00;52.40;;;;;;5004923;28;20862;-80
2021/01/22 11:50:16;;;;;;;3.55;1.17;;;13.00;52.60;;;;;;5018751;28;20575;-76
2021/01/22 11:52:42;;;;;;;5.10;1.80;;;12.90;52.20;;;;;;5016793;28;20210;-80
2021/01/22 11:55:10;;;;;;;4.20;1.30;;;12.90;52.20;;;;;;5023067;28;20451;-83
2021/01/22 11:57:37;;;;;;;6.70;1.50;;;12.90;52.30;;;;;;5023181;28;20210;-79
2021/01/22 12:00:05;;;;;;;2.83;1.00;;;13.00;52.00;;;;;;5019332;28;20509;-79
2021/01/22 12:02:32;;;;;;;9.73;1.77;;;13.10;52.10;;;;;;5018632;28;20442;-79
2021/01/22 12:04:59;;;;;;;7.43;1.30;;;13.30;52.00;;;;;;5014312;28;20458;-79
2021/01/22 12:07:25;;;;;;;2.30;1.20;;;13.30;51.70;;;;;;5016392;28;20455;-80
2021/01/22 12:09:52;;;;;;;3.70;1.37;;;13.30;51.90;;;;;;5016235;28;20479;-81
2021/01/22 12:12:18;;;;;;;5.13;1.50;;;13.40;51.90;;;;;;5022301;28;20509;-80
2021/01/22 12:14:45;;;;;;;3.58;1.40;;;13.40;52.20;;;;;;5011535;28;20920;-79
2021/01/22 12:17:12;;;;;;;1.80;1.33;;;13.50;52.40;;;;;;5016619;28;20199;-80
2021/01/22 12:19:40;;;;;;;7.90;3.40;;;13.70;52.10;;;;;;5020565;28;20451;-81
2021/01/22 12:22:06;;;;;;;8.73;1.30;;;13.70;52.30;;;;;;5018329;28;20514;-83
2021/01/22 12:24:35;;;;;;;1.77;1.53;;;13.80;52.20;;;;;;5019984;28;20466;-82
2021/01/22 12:27:02;;;;;;;4.30;1.30;;;13.70;51.80;;;;;;5036253;28;20465;-81
2021/01/22 12:29:29;;;;;;;4.83;1.70;;;13.80;52.00;;;;;;5015537;28;20485;-81
2021/01/22 12:31:56;;;;;;;4.13;1.30;;;13.80;51.90;;;;;;5022127;28;20478;-84
2021/01/22 12:34:22;;;;;;;7.83;1.67;;;13.80;51.70;;;;;;5019207;28;20477;-83
2021/01/22 12:36:50;;;;;;;7.40;1.43;;;13.70;51.70;;;;;;5017047;28;20462;-83
2021/01/22 12:39:16;;;;;;;2.27;0.87;;;13.90;51.90;;;;;;5020659;28;20458;-79
2021/01/22 12:41:43;;;;;;;2.23;1.00;;;13.70;51.30;;;;;;5011178;28;20466;-80
2021/01/22 12:44:10;;;;;;;4.70;0.97;;;13.60;51.40;;;;;;5019093;28;20521;-84
2021/01/22 12:46:36;;;;;;;1.70;1.00;;;13.50;51.40;;;;;;5011041;28;20443;-81
2021/01/22 12:49:03;;;;;;;14.33;2.27;;;13.60;51.50;;;;;;5010324;28;20218;-80
2021/01/22 12:51:29;;;;;;;9.05;1.40;;;13.60;51.40;;;;;;5013625;28;21005;-78
2021/01/22 12:53:57;;;;;;;10.15;1.60;;;13.80;51.50;;;;;;5010220;28;20489;-80
2021/01/22 12:56:23;;;;;;;22.97;2.40;;;13.90;51.40;;;;;;5013060;28;20211;-80
2021/01/22 12:58:50;;;;;;;4.53;1.70;;;14.10;51.30;;;;;;5013866;28;20466;-77
2021/01/22 13:01:19;;;;;;;4.37;1.20;;;13.80;51.00;;;;;;5006260;28;20810;-69